sensor_id;sensor_type;location;lat;lon;timestamp;pressure;altitude;pressure_sealevel;temperature
24201;BMP280;2801;50.972;7.856;2023-05-23T00:01:47;97542.63;;;16.54
24201;BMP280;2801;50.972;7.856;2023-05-23T00:04:15;97545.31;;;16.54
24201;BMP280;2801;50.972;7.856;2023-05-23T00:06:46;97540.94;;;16.46
24201;BMP280;2801;50.972;7.856;2023-05-23T00:09:16;97533.72;;;16.35
24201;BMP280;2801;50.972;7.856;2023-05-23T00:11:43;97546.53;;;16.38
24201;BMP280;2801;50.972;7.856;2023-05-23T00:14:12;97546.81;;;16.33
24201;BMP280;2801;50.972;7.856;2023-05-23T00:16:41;97549.81;;;16.28
24201;BMP280;2801;50.972;7.856;2023-05-23T00:19:11;97551.38;;;16.29
24201;BMP280;2801;50.972;7.856;2023-05-23T00:21:42;97552.44;;;16.24
24201;BMP280;2801;50.972;7.856;2023-05-23T00:24:09;97549.38;;;16.26
24201;BMP280;2801;50.972;7.856;2023-05-23T00:26:36;97556.25;;;16.20
24201;BMP280;2801;50.972;7.856;2023-05-23T00:29:04;97569.78;;;16.20
24201;BMP280;2801;50.972;7.856;2023-05-23T00:31:31;97574.81;;;16.21
24201;BMP280;2801;50.972;7.856;2023-05-23T00:33:58;97577.44;;;16.18
24201;BMP280;2801;50.972;7.856;2023-05-23T00:36:25;97575.59;;;16.22
24201;BMP280;2801;50.972;7.856;2023-05-23T00:38:52;97572.53;;;16.23
24201;BMP280;2801;50.972;7.856;2023-05-23T00:41:19;97567.41;;;16.18
24201;BMP280;2801;50.972;7.856;2023-05-23T00:43:46;97577.09;;;16.19
24201;BMP280;2801;50.972;7.856;2023-05-23T00:46:15;97573.09;;;16.13
24201;BMP280;2801;50.972;7.856;2023-05-23T00:48:42;97574.09;;;16.05
24201;BMP280;2801;50.972;7.856;2023-05-23T00:51:09;97569.63;;;15.94
24201;BMP280;2801;50.972;7.856;2023-05-23T00:53:36;97544.13;;;15.76
24201;BMP280;2801;50.972;7.856;2023-05-23T00:56:03;97566.75;;;15.87
24201;BMP280;2801;50.972;7.856;2023-05-23T00:58:31;97567.03;;;15.82
24201;BMP280;2801;50.972;7.856;2023-05-23T01:00:58;97552.66;;;15.78
24201;BMP280;2801;50.972;7.856;2023-05-23T01:03:25;97566.94;;;15.78
24201;BMP280;2801;50.972;7.856;2023-05-23T01:05:55;97566.09;;;15.74
24201;BMP280;2801;50.972;7.856;2023-05-23T01:08:22;97572.28;;;15.75
24201;BMP280;2801;50.972;7.856;2023-05-23T01:10:50;97574.66;;;15.76
24201;BMP280;2801;50.972;7.856;2023-05-23T01:13:27;97588.16;;;15.76
24201;BMP280;2801;50.972;7.856;2023-05-23T01:16:06;97581.25;;;15.79
24201;BMP280;2801;50.972;7.856;2023-05-23T01:18:47;97574.72;;;15.80
24201;BMP280;2801;50.972;7.856;2023-05-23T01:21:22;97572.88;;;15.84
24201;BMP280;2801;50.972;7.856;2023-05-23T01:29:41;97564.97;;;15.94
24201;BMP280;2801;50.972;7.856;2023-05-23T01:32:11;97565.06;;;15.98
24201;BMP280;2801;50.972;7.856;2023-05-23T01:34:40;97568.13;;;15.96
24201;BMP280;2801;50.972;7.856;2023-05-23T01:37:09;97563.50;;;15.97
24201;BMP280;2801;50.972;7.856;2023-05-23T01:39:37;97577.13;;;16.04
24201;BMP280;2801;50.972;7.856;2023-05-23T01:42:05;97564.97;;;15.94
24201;BMP280;2801;50.972;7.856;2023-05-23T01:44:34;97582.28;;;16.09
24201;BMP280;2801;50.972;7.856;2023-05-23T01:47:07;97572.03;;;15.99
24201;BMP280;2801;50.972;7.856;2023-05-23T01:49:36;97585.75;;;16.09
24201;BMP280;2801;50.972;7.856;2023-05-23T01:52:04;97580.00;;;16.11
24201;BMP280;2801;50.972;7.856;2023-05-23T01:54:32;97588.47;;;16.09
24201;BMP280;2801;50.972;7.856;2023-05-23T01:57:01;97584.66;;;16.10
24201;BMP280;2801;50.972;7.856;2023-05-23T01:59:28;97579.66;;;16.12
24201;BMP280;2801;50.972;7.856;2023-05-23T02:01:55;97580.50;;;16.16
24201;BMP280;2801;50.972;7.856;2023-05-23T02:04:22;97584.75;;;16.17
24201;BMP280;2801;50.972;7.856;2023-05-23T02:06:49;97584.34;;;16.15
24201;BMP280;2801;50.972;7.856;2023-05-23T02:09:16;97589.75;;;16.15
24201;BMP280;2801;50.972;7.856;2023-05-23T02:11:43;97592.75;;;16.10
24201;BMP280;2801;50.972;7.856;2023-05-23T02:14:10;97583.28;;;16.01
24201;BMP280;2801;50.972;7.856;2023-05-23T02:16:38;97588.25;;;15.99
24201;BMP280;2801;50.972;7.856;2023-05-23T02:19:05;97570.59;;;15.86
24201;BMP280;2801;50.972;7.856;2023-05-23T02:21:32;97585.84;;;15.94
24201;BMP280;2801;50.972;7.856;2023-05-23T02:24:01;97582.19;;;15.86
24201;BMP280;2801;50.972;7.856;2023-05-23T02:26:28;97594.59;;;15.87
24201;BMP280;2801;50.972;7.856;2023-05-23T02:28:55;97595.41;;;15.72
24201;BMP280;2801;50.972;7.856;2023-05-23T02:31:22;97608.03;;;15.68
24201;BMP280;2801;50.972;7.856;2023-05-23T02:33:49;97616.00;;;15.61
24201;BMP280;2801;50.972;7.856;2023-05-23T02:36:16;97607.28;;;15.52
24201;BMP280;2801;50.972;7.856;2023-05-23T02:38:43;97618.88;;;15.53
24201;BMP280;2801;50.972;7.856;2023-05-23T02:41:10;97625.34;;;15.48
24201;BMP280;2801;50.972;7.856;2023-05-23T02:43:37;97624.03;;;15.42
24201;BMP280;2801;50.972;7.856;2023-05-23T02:46:05;97620.47;;;15.38
24201;BMP280;2801;50.972;7.856;2023-05-23T02:48:31;97623.75;;;15.32
24201;BMP280;2801;50.972;7.856;2023-05-23T02:50:59;97629.94;;;15.32
24201;BMP280;2801;50.972;7.856;2023-05-23T02:53:26;97628.28;;;15.28
24201;BMP280;2801;50.972;7.856;2023-05-23T02:55:53;97620.53;;;15.26
24201;BMP280;2801;50.972;7.856;2023-05-23T02:58:20;97614.06;;;15.31
24201;BMP280;2801;50.972;7.856;2023-05-23T03:00:47;97614.78;;;15.28
24201;BMP280;2801;50.972;7.856;2023-05-23T03:03:14;97609.72;;;15.26
24201;BMP280;2801;50.972;7.856;2023-05-23T03:05:42;97621.59;;;15.22
24201;BMP280;2801;50.972;7.856;2023-05-23T03:08:09;97625.31;;;15.17
24201;BMP280;2801;50.972;7.856;2023-05-23T03:10:36;97617.50;;;15.12
24201;BMP280;2801;50.972;7.856;2023-05-23T03:13:03;97630.19;;;15.12
24201;BMP280;2801;50.972;7.856;2023-05-23T03:15:30;97622.88;;;15.12
24201;BMP280;2801;50.972;7.856;2023-05-23T03:17:57;97625.13;;;15.10
24201;BMP280;2801;50.972;7.856;2023-05-23T03:20:24;97628.88;;;15.06
24201;BMP280;2801;50.972;7.856;2023-05-23T03:22:51;97632.38;;;15.06
24201;BMP280;2801;50.972;7.856;2023-05-23T03:25:18;97629.22;;;15.04
24201;BMP280;2801;50.972;7.856;2023-05-23T03:27:45;97632.63;;;15.01
24201;BMP280;2801;50.972;7.856;2023-05-23T03:30:12;97642.56;;;14.97
24201;BMP280;2801;50.972;7.856;2023-05-23T03:32:39;97630.50;;;14.95
24201;BMP280;2801;50.972;7.856;2023-05-23T03:35:07;97626.59;;;14.92
24201;BMP280;2801;50.972;7.856;2023-05-23T03:37:34;97635.16;;;14.94
24201;BMP280;2801;50.972;7.856;2023-05-23T03:40:01;97638.28;;;14.96
24201;BMP280;2801;50.972;7.856;2023-05-23T03:42:29;97627.13;;;14.98
24201;BMP280;2801;50.972;7.856;2023-05-23T03:44:56;97631.50;;;15.02
24201;BMP280;2801;50.972;7.856;2023-05-23T03:47:23;97635.34;;;15.01
24201;BMP280;2801;50.972;7.856;2023-05-23T03:49:50;97636.97;;;15.06
24201;BMP280;2801;50.972;7.856;2023-05-23T03:52:17;97638.22;;;15.08
24201;BMP280;2801;50.972;7.856;2023-05-23T03:54:44;97641.69;;;15.09
24201;BMP280;2801;50.972;7.856;2023-05-23T03:57:11;97643.16;;;15.06
24201;BMP280;2801;50.972;7.856;2023-05-23T03:59:38;97643.63;;;15.08
24201;BMP280;2801;50.972;7.856;2023-05-23T04:02:05;97644.72;;;15.07
24201;BMP280;2801;50.972;7.856;2023-05-23T04:04:32;97641.69;;;15.09
24201;BMP280;2801;50.972;7.856;2023-05-23T04:07:00;97633.22;;;14.95
24201;BMP280;2801;50.972;7.856;2023-05-23T04:09:27;97655.00;;;15.02
24201;BMP280;2801;50.972;7.856;2023-05-23T04:11:54;97644.91;;;14.99
24201;BMP280;2801;50.972;7.856;2023-05-23T04:14:21;97651.00;;;14.96
24201;BMP280;2801;50.972;7.856;2023-05-23T04:16:49;97649.41;;;14.95
24201;BMP280;2801;50.972;7.856;2023-05-23T04:19:16;97653.50;;;14.89
24201;BMP280;2801;50.972;7.856;2023-05-23T04:21:43;97642.59;;;14.85
24201;BMP280;2801;50.972;7.856;2023-05-23T04:24:10;97652.09;;;14.79
24201;BMP280;2801;50.972;7.856;2023-05-23T04:26:37;97655.94;;;14.78
24201;BMP280;2801;50.972;7.856;2023-05-23T04:29:05;97652.34;;;14.74
24201;BMP280;2801;50.972;7.856;2023-05-23T04:31:32;97654.34;;;14.77
24201;BMP280;2801;50.972;7.856;2023-05-23T04:34:01;97653.25;;;14.78
24201;BMP280;2801;50.972;7.856;2023-05-23T04:36:29;97660.63;;;14.81
24201;BMP280;2801;50.972;7.856;2023-05-23T04:38:57;97653.31;;;14.82
24201;BMP280;2801;50.972;7.856;2023-05-23T04:41:23;97660.28;;;14.82
24201;BMP280;2801;50.972;7.856;2023-05-23T04:43:51;97655.69;;;14.83
24201;BMP280;2801;50.972;7.856;2023-05-23T04:46:20;97665.34;;;14.84
24201;BMP280;2801;50.972;7.856;2023-05-23T04:48:53;97657.59;;;14.82
24201;BMP280;2801;50.972;7.856;2023-05-23T04:51:21;97666.91;;;14.85
24201;BMP280;2801;50.972;7.856;2023-05-23T04:53:49;97668.38;;;14.82
24201;BMP280;2801;50.972;7.856;2023-05-23T04:56:16;97670.31;;;14.82
24201;BMP280;2801;50.972;7.856;2023-05-23T04:58:46;97666.47;;;14.83
24201;BMP280;2801;50.972;7.856;2023-05-23T05:01:14;97661.88;;;14.84
24201;BMP280;2801;50.972;7.856;2023-05-23T05:03:41;97656.09;;;14.85
24201;BMP280;2801;50.972;7.856;2023-05-23T05:06:08;97657.34;;;14.88
24201;BMP280;2801;50.972;7.856;2023-05-23T05:08:35;97656.81;;;14.82
24201;BMP280;2801;50.972;7.856;2023-05-23T05:11:02;97657.78;;;14.90
24201;BMP280;2801;50.972;7.856;2023-05-23T05:13:29;97649.78;;;14.93
24201;BMP280;2801;50.972;7.856;2023-05-23T05:15:56;97663.03;;;14.98
24201;BMP280;2801;50.972;7.856;2023-05-23T05:18:27;97662.22;;;14.98
24201;BMP280;2801;50.972;7.856;2023-05-23T05:20:55;97659.44;;;14.94
24201;BMP280;2801;50.972;7.856;2023-05-23T05:23:25;97665.97;;;14.93
24201;BMP280;2801;50.972;7.856;2023-05-23T05:25:55;97665.53;;;14.91
24201;BMP280;2801;50.972;7.856;2023-05-23T05:28:22;97666.66;;;14.90
24201;BMP280;2801;50.972;7.856;2023-05-23T05:30:49;97669.38;;;14.90
24201;BMP280;2801;50.972;7.856;2023-05-23T05:33:20;97673.53;;;14.88
24201;BMP280;2801;50.972;7.856;2023-05-23T05:35:51;97672.75;;;14.87
24201;BMP280;2801;50.972;7.856;2023-05-23T05:38:18;97668.91;;;14.88
24201;BMP280;2801;50.972;7.856;2023-05-23T05:40:45;97670.31;;;14.82
24201;BMP280;2801;50.972;7.856;2023-05-23T05:43:12;97679.09;;;14.79
24201;BMP280;2801;50.972;7.856;2023-05-23T05:45:39;97690.56;;;14.76
24201;BMP280;2801;50.972;7.856;2023-05-23T05:48:06;97684.63;;;14.70
24201;BMP280;2801;50.972;7.856;2023-05-23T05:50:33;97689.22;;;14.70
24201;BMP280;2801;50.972;7.856;2023-05-23T05:53:00;97687.00;;;14.72
24201;BMP280;2801;50.972;7.856;2023-05-23T05:55:28;97684.75;;;14.74
24201;BMP280;2801;50.972;7.856;2023-05-23T05:57:55;97688.22;;;14.74
24201;BMP280;2801;50.972;7.856;2023-05-23T06:00:22;97686.94;;;14.84
24201;BMP280;2801;50.972;7.856;2023-05-23T06:02:49;97688.25;;;14.90
24201;BMP280;2801;50.972;7.856;2023-05-23T06:05:24;97686.44;;;14.94
24201;BMP280;2801;50.972;7.856;2023-05-23T06:07:52;97689.69;;;15.00
24201;BMP280;2801;50.972;7.856;2023-05-23T06:10:19;97682.88;;;15.06
24201;BMP280;2801;50.972;7.856;2023-05-23T06:12:46;97689.94;;;15.10
24201;BMP280;2801;50.972;7.856;2023-05-23T06:15:13;97686.22;;;15.15
24201;BMP280;2801;50.972;7.856;2023-05-23T06:17:41;97686.63;;;15.17
24201;BMP280;2801;50.972;7.856;2023-05-23T06:20:11;97687.16;;;15.22
24201;BMP280;2801;50.972;7.856;2023-05-23T06:22:38;97688.38;;;15.25
24201;BMP280;2801;50.972;7.856;2023-05-23T06:25:06;97682.84;;;15.18
24201;BMP280;2801;50.972;7.856;2023-05-23T06:27:33;97677.31;;;15.14
24201;BMP280;2801;50.972;7.856;2023-05-23T06:30:00;97695.63;;;15.21
24201;BMP280;2801;50.972;7.856;2023-05-23T06:32:27;97677.66;;;15.13
24201;BMP280;2801;50.972;7.856;2023-05-23T06:34:54;97695.53;;;15.17
24201;BMP280;2801;50.972;7.856;2023-05-23T06:37:21;97689.69;;;15.15
24201;BMP280;2801;50.972;7.856;2023-05-23T06:39:48;97704.84;;;15.20
24201;BMP280;2801;50.972;7.856;2023-05-23T06:42:15;97699.09;;;15.21
24201;BMP280;2801;50.972;7.856;2023-05-23T06:44:42;97705.03;;;15.27
24201;BMP280;2801;50.972;7.856;2023-05-23T06:47:09;97704.44;;;15.33
24201;BMP280;2801;50.972;7.856;2023-05-23T06:49:36;97697.22;;;15.37
24201;BMP280;2801;50.972;7.856;2023-05-23T06:52:03;97709.19;;;15.36
24201;BMP280;2801;50.972;7.856;2023-05-23T06:54:30;97713.03;;;15.35
24201;BMP280;2801;50.972;7.856;2023-05-23T06:56:57;97718.16;;;15.40
24201;BMP280;2801;50.972;7.856;2023-05-23T06:59:24;97716.16;;;15.37
24201;BMP280;2801;50.972;7.856;2023-05-23T07:01:51;97730.31;;;15.34
24201;BMP280;2801;50.972;7.856;2023-05-23T07:04:18;97734.16;;;15.33
24201;BMP280;2801;50.972;7.856;2023-05-23T07:06:45;97718.00;;;15.21
24201;BMP280;2801;50.972;7.856;2023-05-23T07:09:12;97729.78;;;15.29
24201;BMP280;2801;50.972;7.856;2023-05-23T07:11:39;97738.41;;;15.34
24201;BMP280;2801;50.972;7.856;2023-05-23T07:14:06;97733.00;;;15.34
24201;BMP280;2801;50.972;7.856;2023-05-23T07:16:33;97726.84;;;15.34
24201;BMP280;2801;50.972;7.856;2023-05-23T07:19:01;97738.22;;;15.39
24201;BMP280;2801;50.972;7.856;2023-05-23T07:21:29;97741.59;;;15.36
24201;BMP280;2801;50.972;7.856;2023-05-23T07:23:56;97751.03;;;15.30
24201;BMP280;2801;50.972;7.856;2023-05-23T07:26:23;97745.97;;;15.29
24201;BMP280;2801;50.972;7.856;2023-05-23T07:28:50;97744.22;;;15.21
24201;BMP280;2801;50.972;7.856;2023-05-23T07:31:17;97752.25;;;15.17
24201;BMP280;2801;50.972;7.856;2023-05-23T07:33:44;97753.53;;;15.08
24201;BMP280;2801;50.972;7.856;2023-05-23T07:36:11;97762.16;;;15.13
24201;BMP280;2801;50.972;7.856;2023-05-23T07:38:38;97760.16;;;15.10
24201;BMP280;2801;50.972;7.856;2023-05-23T07:41:05;97750.38;;;15.06
24201;BMP280;2801;50.972;7.856;2023-05-23T07:43:39;97757.44;;;15.10
24201;BMP280;2801;50.972;7.856;2023-05-23T07:46:06;97758.59;;;15.09
24201;BMP280;2801;50.972;7.856;2023-05-23T07:48:33;97756.31;;;15.11
24201;BMP280;2801;50.972;7.856;2023-05-23T07:51:00;97769.59;;;15.16
24201;BMP280;2801;50.972;7.856;2023-05-23T07:53:27;97767.72;;;15.05
24201;BMP280;2801;50.972;7.856;2023-05-23T07:55:54;97768.31;;;14.98
24201;BMP280;2801;50.972;7.856;2023-05-23T07:58:20;97774.84;;;14.97
24201;BMP280;2801;50.972;7.856;2023-05-23T08:00:49;97775.94;;;14.96
24201;BMP280;2801;50.972;7.856;2023-05-23T08:03:18;97781.13;;;15.01
24201;BMP280;2801;50.972;7.856;2023-05-23T08:05:46;97774.41;;;14.95
24201;BMP280;2801;50.972;7.856;2023-05-23T08:08:13;97770.56;;;14.96
24201;BMP280;2801;50.972;7.856;2023-05-23T08:10:40;97774.84;;;14.97
24201;BMP280;2801;50.972;7.856;2023-05-23T08:13:10;97776.94;;;15.04
24201;BMP280;2801;50.972;7.856;2023-05-23T08:15:37;97777.50;;;15.09
24201;BMP280;2801;50.972;7.856;2023-05-23T08:18:04;97776.00;;;15.12
24201;BMP280;2801;50.972;7.856;2023-05-23T08:20:32;97779.94;;;15.14
24201;BMP280;2801;50.972;7.856;2023-05-23T08:23:00;97783.44;;;15.15
24201;BMP280;2801;50.972;7.856;2023-05-23T08:25:28;97781.41;;;15.12
24201;BMP280;2801;50.972;7.856;2023-05-23T08:27:59;97785.25;;;15.11
24201;BMP280;2801;50.972;7.856;2023-05-23T08:30:28;97792.47;;;15.07
24201;BMP280;2801;50.972;7.856;2023-05-23T08:32:55;97792.28;;;15.00
24201;BMP280;2801;50.972;7.856;2023-05-23T08:35:23;97789.91;;;14.98
24201;BMP280;2801;50.972;7.856;2023-05-23T08:37:51;97802.94;;;14.96
24201;BMP280;2801;50.972;7.856;2023-05-23T08:40:21;97802.56;;;14.82
24201;BMP280;2801;50.972;7.856;2023-05-23T08:42:49;97813.56;;;14.77
24201;BMP280;2801;50.972;7.856;2023-05-23T08:45:17;97817.66;;;14.71
24201;BMP280;2801;50.972;7.856;2023-05-23T08:47:46;97827.66;;;14.70
24201;BMP280;2801;50.972;7.856;2023-05-23T08:50:15;97823.94;;;14.75
24201;BMP280;2801;50.972;7.856;2023-05-23T08:52:55;97836.59;;;14.87
24201;BMP280;2801;50.972;7.856;2023-05-23T08:55:28;97817.59;;;14.95
24201;BMP280;2801;50.972;7.856;2023-05-23T08:57:57;97834.66;;;14.99
24201;BMP280;2801;50.972;7.856;2023-05-23T09:00:27;97839.47;;;15.06
24201;BMP280;2801;50.972;7.856;2023-05-23T09:02:55;97834.41;;;15.04
24201;BMP280;2801;50.972;7.856;2023-05-23T09:05:25;97842.19;;;15.06
24201;BMP280;2801;50.972;7.856;2023-05-23T09:07:52;97846.28;;;15.00
24201;BMP280;2801;50.972;7.856;2023-05-23T09:10:20;97844.59;;;14.95
24201;BMP280;2801;50.972;7.856;2023-05-23T09:12:48;97849.19;;;14.95
24201;BMP280;2801;50.972;7.856;2023-05-23T09:15:15;97853.56;;;14.99
24201;BMP280;2801;50.972;7.856;2023-05-23T09:17:44;97844.78;;;15.02
24201;BMP280;2801;50.972;7.856;2023-05-23T09:20:14;97848.72;;;15.05
24201;BMP280;2801;50.972;7.856;2023-05-23T09:22:48;97859.28;;;15.10
24201;BMP280;2801;50.972;7.856;2023-05-23T09:25:15;97844.72;;;14.99
24201;BMP280;2801;50.972;7.856;2023-05-23T09:27:42;97848.97;;;15.00
24201;BMP280;2801;50.972;7.856;2023-05-23T09:30:13;97852.13;;;14.90
24201;BMP280;2801;50.972;7.856;2023-05-23T09:32:41;97851.59;;;14.84
24201;BMP280;2801;50.972;7.856;2023-05-23T09:35:08;97847.44;;;14.74
24201;BMP280;2801;50.972;7.856;2023-05-23T09:37:44;97863.97;;;14.73
24201;BMP280;2801;50.972;7.856;2023-05-23T09:40:14;97862.63;;;14.79
24201;BMP280;2801;50.972;7.856;2023-05-23T09:42:46;97863.63;;;14.74
24201;BMP280;2801;50.972;7.856;2023-05-23T09:45:15;97859.72;;;14.72
24201;BMP280;2801;50.972;7.856;2023-05-23T09:47:52;97865.34;;;14.67
24201;BMP280;2801;50.972;7.856;2023-05-23T09:50:20;97866.66;;;14.73
24201;BMP280;2801;50.972;7.856;2023-05-23T09:52:48;97867.56;;;14.77
24201;BMP280;2801;50.972;7.856;2023-05-23T09:55:17;97868.78;;;14.79
24201;BMP280;2801;50.972;7.856;2023-05-23T09:57:47;97865.97;;;14.88
24201;BMP280;2801;50.972;7.856;2023-05-23T10:00:16;97865.28;;;14.91
24201;BMP280;2801;50.972;7.856;2023-05-23T10:05:33;97867.91;;;14.88
24201;BMP280;2801;50.972;7.856;2023-05-23T10:08:24;97865.38;;;14.95
24201;BMP280;2801;50.972;7.856;2023-05-23T10:13:27;97861.88;;;15.06
24201;BMP280;2801;50.972;7.856;2023-05-23T10:16:18;97870.78;;;15.07
24201;BMP280;2801;50.972;7.856;2023-05-23T10:18:58;97871.78;;;15.02
24201;BMP280;2801;50.972;7.856;2023-05-23T10:21:43;97876.19;;;14.95
24201;BMP280;2801;50.972;7.856;2023-05-23T10:24:13;97883.72;;;14.89
24201;BMP280;2801;50.972;7.856;2023-05-23T10:26:42;97887.56;;;14.88
24201;BMP280;2801;50.972;7.856;2023-05-23T10:29:10;97883.28;;;14.99
24201;BMP280;2801;50.972;7.856;2023-05-23T10:31:38;97886.31;;;14.98
24201;BMP280;2801;50.972;7.856;2023-05-23T10:37:03;97897.78;;;14.95
24201;BMP280;2801;50.972;7.856;2023-05-23T10:39:53;97902.19;;;14.87
24201;BMP280;2801;50.972;7.856;2023-05-23T10:42:55;97899.50;;;14.87
24201;BMP280;2801;50.972;7.856;2023-05-23T10:45:27;97903.53;;;14.81
24201;BMP280;2801;50.972;7.856;2023-05-23T10:47:59;97900.63;;;14.86
24201;BMP280;2801;50.972;7.856;2023-05-23T10:50:35;97898.59;;;14.83
24201;BMP280;2801;50.972;7.856;2023-05-23T10:53:04;97903.34;;;14.86
24201;BMP280;2801;50.972;7.856;2023-05-23T10:55:35;97906.47;;;14.88
24201;BMP280;2801;50.972;7.856;2023-05-23T10:58:19;97903.53;;;15.05
24201;BMP280;2801;50.972;7.856;2023-05-23T11:01:12;97895.09;;;15.34
24201;BMP280;2801;50.972;7.856;2023-05-23T11:09:23;97901.19;;;15.71
24201;BMP280;2801;50.972;7.856;2023-05-23T11:17:15;97914.41;;;15.60
24201;BMP280;2801;50.972;7.856;2023-05-23T11:20:06;97912.34;;;15.42
24201;BMP280;2801;50.972;7.856;2023-05-23T11:22:36;97919.00;;;15.20
24201;BMP280;2801;50.972;7.856;2023-05-23T11:25:07;97926.47;;;14.99
24201;BMP280;2801;50.972;7.856;2023-05-23T11:27:39;97925.13;;;14.81
24201;BMP280;2801;50.972;7.856;2023-05-23T11:30:14;97926.50;;;14.63
24201;BMP280;2801;50.972;7.856;2023-05-23T11:32:49;97938.41;;;14.38
24201;BMP280;2801;50.972;7.856;2023-05-23T11:35:17;97931.78;;;14.35
24201;BMP280;2801;50.972;7.856;2023-05-23T11:37:44;97937.28;;;14.39
24201;BMP280;2801;50.972;7.856;2023-05-23T11:42:54;97942.00;;;14.54
24201;BMP280;2801;50.972;7.856;2023-05-23T11:45:22;97933.34;;;14.60
24201;BMP280;2801;50.972;7.856;2023-05-23T11:47:49;97934.38;;;14.80
24201;BMP280;2801;50.972;7.856;2023-05-23T11:50:17;97938.19;;;14.91
24201;BMP280;2801;50.972;7.856;2023-05-23T11:52:46;97946.63;;;14.90
24201;BMP280;2801;50.972;7.856;2023-05-23T11:55:21;97952.47;;;14.79
24201;BMP280;2801;50.972;7.856;2023-05-23T11:57:49;97961.59;;;14.63
24201;BMP280;2801;50.972;7.856;2023-05-23T12:00:18;97958.44;;;14.49
24201;BMP280;2801;50.972;7.856;2023-05-23T12:02:46;97953.69;;;14.34
24201;BMP280;2801;50.972;7.856;2023-05-23T12:05:14;97957.00;;;14.19
24201;BMP280;2801;50.972;7.856;2023-05-23T12:07:47;97961.91;;;14.05
24201;BMP280;2801;50.972;7.856;2023-05-23T12:10:16;97971.38;;;14.11
24201;BMP280;2801;50.972;7.856;2023-05-23T12:12:44;97956.47;;;14.25
24201;BMP280;2801;50.972;7.856;2023-05-23T12:15:12;97959.56;;;14.48
24201;BMP280;2801;50.972;7.856;2023-05-23T12:17:48;97952.13;;;14.69
24201;BMP280;2801;50.972;7.856;2023-05-23T12:20:16;97953.25;;;14.92
24201;BMP280;2801;50.972;7.856;2023-05-23T12:22:43;97950.00;;;14.99
24201;BMP280;2801;50.972;7.856;2023-05-23T12:25:10;97955.16;;;15.04
24201;BMP280;2801;50.972;7.856;2023-05-23T12:27:40;97960.09;;;15.02
24201;BMP280;2801;50.972;7.856;2023-05-23T12:30:12;97953.13;;;15.01
24201;BMP280;2801;50.972;7.856;2023-05-23T12:32:41;97967.66;;;15.08
24201;BMP280;2801;50.972;7.856;2023-05-23T12:35:11;97965.97;;;15.04
24201;BMP280;2801;50.972;7.856;2023-05-23T12:37:40;97968.69;;;14.92
24201;BMP280;2801;50.972;7.856;2023-05-23T12:40:14;97975.31;;;14.82
24201;BMP280;2801;50.972;7.856;2023-05-23T12:42:55;97971.16;;;14.73
24201;BMP280;2801;50.972;7.856;2023-05-23T12:45:31;97980.13;;;14.64
24201;BMP280;2801;50.972;7.856;2023-05-23T12:47:59;97983.53;;;14.73
24201;BMP280;2801;50.972;7.856;2023-05-23T12:50:26;97987.00;;;14.86
24201;BMP280;2801;50.972;7.856;2023-05-23T12:52:53;97993.31;;;14.90
24201;BMP280;2801;50.972;7.856;2023-05-23T12:55:20;97984.41;;;14.90
24201;BMP280;2801;50.972;7.856;2023-05-23T12:57:47;97984.41;;;15.02
24201;BMP280;2801;50.972;7.856;2023-05-23T13:00:15;97990.91;;;15.13
24201;BMP280;2801;50.972;7.856;2023-05-23T13:02:42;97986.28;;;15.25
24201;BMP280;2801;50.972;7.856;2023-05-23T13:05:09;97986.09;;;15.42
24201;BMP280;2801;50.972;7.856;2023-05-23T13:07:36;97992.44;;;15.62
24201;BMP280;2801;50.972;7.856;2023-05-23T13:10:04;97994.13;;;15.66
24201;BMP280;2801;50.972;7.856;2023-05-23T13:12:31;97984.53;;;15.69
24201;BMP280;2801;50.972;7.856;2023-05-23T13:15:00;97979.13;;;15.69
24201;BMP280;2801;50.972;7.856;2023-05-23T13:17:27;97979.25;;;15.72
24201;BMP280;2801;50.972;7.856;2023-05-23T13:19:54;97981.88;;;15.84
24201;BMP280;2801;50.972;7.856;2023-05-23T13:22:21;97978.38;;;15.84
24201;BMP280;2801;50.972;7.856;2023-05-23T13:24:48;97968.84;;;15.74
24201;BMP280;2801;50.972;7.856;2023-05-23T13:27:15;97974.19;;;15.71
24201;BMP280;2801;50.972;7.856;2023-05-23T13:29:42;97976.00;;;15.67
24201;BMP280;2801;50.972;7.856;2023-05-23T13:32:09;97972.28;;;15.59
24201;BMP280;2801;50.972;7.856;2023-05-23T13:34:36;97981.56;;;15.46
24201;BMP280;2801;50.972;7.856;2023-05-23T13:37:03;97987.66;;;15.31
24201;BMP280;2801;50.972;7.856;2023-05-23T13:39:31;97986.63;;;15.24
24201;BMP280;2801;50.972;7.856;2023-05-23T13:41:58;97984.38;;;15.14
24201;BMP280;2801;50.972;7.856;2023-05-23T13:44:25;97984.03;;;15.15
24201;BMP280;2801;50.972;7.856;2023-05-23T13:46:52;97987.53;;;15.28
24201;BMP280;2801;50.972;7.856;2023-05-23T13:49:19;97980.56;;;15.39
24201;BMP280;2801;50.972;7.856;2023-05-23T13:51:46;97989.53;;;15.55
24201;BMP280;2801;50.972;7.856;2023-05-23T13:54:13;97992.94;;;15.79
24201;BMP280;2801;50.972;7.856;2023-05-23T13:56:40;97993.06;;;15.98
24201;BMP280;2801;50.972;7.856;2023-05-23T13:59:07;97981.28;;;16.18
24201;BMP280;2801;50.972;7.856;2023-05-23T14:01:34;97986.16;;;16.28
24201;BMP280;2801;50.972;7.856;2023-05-23T14:04:01;97983.06;;;16.42
24201;BMP280;2801;50.972;7.856;2023-05-23T14:06:31;97987.44;;;16.46
24201;BMP280;2801;50.972;7.856;2023-05-23T14:08:58;97981.78;;;16.51
24201;BMP280;2801;50.972;7.856;2023-05-23T14:11:25;97978.28;;;16.82
24201;BMP280;2801;50.972;7.856;2023-05-23T14:13:52;97973.91;;;17.08
24201;BMP280;2801;50.972;7.856;2023-05-23T14:16:19;97971.19;;;17.08
24201;BMP280;2801;50.972;7.856;2023-05-23T14:18:46;97975.81;;;16.92
24201;BMP280;2801;50.972;7.856;2023-05-23T14:21:13;97985.00;;;16.72
24201;BMP280;2801;50.972;7.856;2023-05-23T14:23:40;97980.72;;;16.56
24201;BMP280;2801;50.972;7.856;2023-05-23T14:26:07;97985.78;;;16.57
24201;BMP280;2801;50.972;7.856;2023-05-23T14:28:34;97992.69;;;16.55
24201;BMP280;2801;50.972;7.856;2023-05-23T14:31:01;97985.09;;;16.45
24201;BMP280;2801;50.972;7.856;2023-05-23T14:33:28;97971.84;;;16.12
24201;BMP280;2801;50.972;7.856;2023-05-23T14:35:55;97998.72;;;16.21
24201;BMP280;2801;50.972;7.856;2023-05-23T14:38:22;97986.25;;;16.16
24201;BMP280;2801;50.972;7.856;2023-05-23T14:40:49;97976.53;;;16.43
24201;BMP280;2801;50.972;7.856;2023-05-23T14:43:16;97980.84;;;16.59
24201;BMP280;2801;50.972;7.856;2023-05-23T14:45:43;97970.69;;;16.72
24201;BMP280;2801;50.972;7.856;2023-05-23T14:48:10;97967.09;;;16.83
24201;BMP280;2801;50.972;7.856;2023-05-23T14:50:38;97962.03;;;16.97
24201;BMP280;2801;50.972;7.856;2023-05-23T14:53:05;97958.19;;;17.33
24201;BMP280;2801;50.972;7.856;2023-05-23T14:55:32;97954.94;;;17.81
24201;BMP280;2801;50.972;7.856;2023-05-23T14:57:59;97942.47;;;18.18